createdAt,value
2019-04-16T00:02:06.822Z,5.90
2019-04-16T00:05:00.570Z,6.00
2019-04-16T00:07:51.628Z,6.57
2019-04-16T00:10:38.889Z,6.00
2019-04-16T00:13:27.351Z,6.40
2019-04-16T00:15:57.477Z,6.57
2019-04-16T00:18:26.997Z,6.40
2019-04-16T00:21:14.163Z,6.60
2019-04-16T00:24:08.550Z,7.63
2019-04-16T00:26:38.632Z,6.77
2019-04-16T00:29:08.007Z,6.70
2019-04-16T00:31:37.838Z,6.77
2019-04-16T00:34:07.133Z,6.50
2019-04-16T00:36:36.469Z,6.57
2019-04-16T00:39:07.144Z,5.70
2019-04-16T00:41:36.548Z,6.20
2019-04-16T00:44:06.283Z,6.67
2019-04-16T00:46:35.669Z,6.97
2019-04-16T00:49:04.976Z,6.87
2019-04-16T00:51:34.399Z,7.40
2019-04-16T00:54:03.783Z,8.47
2019-04-16T00:56:33.159Z,7.87
2019-04-16T00:59:02.675Z,9.17
2019-04-16T01:01:32.176Z,8.77
2019-04-16T01:04:01.485Z,8.93
2019-04-16T01:06:30.875Z,9.40
2019-04-16T01:09:00.331Z,8.93
2019-04-16T01:11:29.735Z,9.93
2019-04-16T01:13:59.116Z,9.50
2019-04-16T01:16:30.261Z,9.13
2019-04-16T01:18:59.528Z,9.10
2019-04-16T01:21:29.051Z,10.20
2019-04-16T01:23:58.475Z,8.67
2019-04-16T01:26:27.999Z,9.53
2019-04-16T01:29:10.409Z,9.23
2019-04-16T01:31:57.433Z,9.70
2019-04-16T01:34:35.293Z,9.43
2019-04-16T01:37:25.488Z,8.80
2019-04-16T01:39:52.862Z,9.37
2019-04-16T01:42:23.566Z,9.77
2019-04-16T01:44:53.306Z,8.90
2019-04-16T01:47:22.819Z,9.40
2019-04-16T01:49:52.252Z,9.33
2019-04-16T01:52:21.677Z,10.87
2019-04-16T01:54:51.459Z,10.33
2019-04-16T01:57:22.348Z,9.90
2019-04-16T01:59:51.657Z,10.20
2019-04-16T02:02:21.017Z,9.80
2019-04-16T02:04:52.115Z,9.53
2019-04-16T02:07:21.491Z,11.13
2019-04-16T02:09:50.791Z,10.97
2019-04-16T02:12:20.301Z,10.60
2019-04-16T02:14:50.456Z,9.80
2019-04-16T02:17:20.499Z,9.67
2019-04-16T02:19:50.030Z,9.27
2019-04-16T02:22:19.418Z,9.57
2019-04-16T02:24:48.929Z,10.00
2019-04-16T02:27:18.293Z,9.87
2019-04-16T02:29:47.775Z,9.93
2019-04-16T02:32:17.209Z,9.67
2019-04-16T02:34:46.592Z,9.97
2019-04-16T02:37:16.065Z,9.40
2019-04-16T02:39:48.160Z,9.23
2019-04-16T02:42:16.409Z,9.57
2019-04-16T02:44:50.050Z,9.03
2019-04-16T02:47:17.004Z,10.63
2019-04-16T02:49:46.307Z,10.93
2019-04-16T02:52:31.157Z,9.97
2019-04-16T02:55:31.913Z,9.77
2019-04-16T02:58:20.272Z,11.17
2019-04-16T03:01:20.399Z,9.93
2019-04-16T03:03:56.214Z,12.40
2019-04-16T03:06:24.622Z,10.93
2019-04-16T03:08:54.246Z,10.23
2019-04-16T03:11:23.848Z,10.77
2019-04-16T03:13:58.216Z,13.10
2019-04-16T03:16:31.504Z,10.60
2019-04-16T03:19:04.331Z,10.37
2019-04-16T03:21:33.775Z,10.30
2019-04-16T03:24:08.022Z,13.23
2019-04-16T03:26:36.670Z,12.00
2019-04-16T03:29:06.018Z,9.93
2019-04-16T03:31:35.451Z,10.30
2019-04-16T03:34:04.879Z,12.07
2019-04-16T03:36:34.495Z,11.10
2019-04-16T03:39:05.874Z,10.70
2019-04-16T03:41:35.372Z,11.13
2019-04-16T03:44:05.146Z,9.80
2019-04-16T03:46:34.675Z,9.57
2019-04-16T03:49:04.206Z,10.00
2019-04-16T03:51:35.535Z,11.40
2019-04-16T03:54:05.204Z,9.30
2019-04-16T03:56:35.137Z,11.17
2019-04-16T03:59:05.035Z,10.27
2019-04-16T04:01:35.787Z,11.13
2019-04-16T04:04:05.194Z,10.37
2019-04-16T04:06:36.507Z,9.70
2019-04-16T04:09:06.538Z,10.30
2019-04-16T04:11:40.954Z,11.50
2019-04-16T04:14:07.465Z,10.80
2019-04-16T04:16:36.752Z,10.37
2019-04-16T04:19:06.129Z,9.90
2019-04-16T04:21:35.611Z,10.90
2019-04-16T04:24:05.191Z,10.17
2019-04-16T04:26:34.650Z,10.83
2019-04-16T04:29:06.208Z,10.43
2019-04-16T04:31:35.083Z,10.40
2019-04-16T04:34:04.600Z,10.77
2019-04-16T04:36:33.863Z,10.53
2019-04-16T04:39:08.937Z,10.53
2019-04-16T04:41:36.732Z,10.70
2019-04-16T04:44:06.101Z,13.57
2019-04-16T04:46:35.527Z,11.20
2019-04-16T04:49:04.806Z,10.53
2019-04-16T04:51:36.475Z,11.00
2019-04-16T04:54:05.762Z,11.20
2019-04-16T04:56:37.351Z,12.93
2019-04-16T04:59:06.641Z,11.13
2019-04-16T05:01:36.152Z,11.77
2019-04-16T05:04:27.421Z,10.47
2019-04-16T05:06:59.870Z,10.10
2019-04-16T05:09:29.672Z,11.20
2019-04-16T05:12:00.344Z,10.70
2019-04-16T05:14:29.771Z,9.77
2019-04-16T05:16:59.192Z,10.33
2019-04-16T05:19:28.570Z,10.10
2019-04-16T05:21:58.036Z,10.07
2019-04-16T05:24:29.143Z,11.10
2019-04-16T05:26:58.400Z,10.50
2019-04-16T05:29:27.824Z,9.83
2019-04-16T05:31:57.661Z,9.57
2019-04-16T05:34:27.646Z,10.03
2019-04-16T05:36:57.207Z,11.67
2019-04-16T05:39:29.940Z,10.83
2019-04-16T05:41:59.354Z,10.70
2019-04-16T05:44:33.172Z,10.83
2019-04-16T05:46:59.787Z,9.57
2019-04-16T05:49:29.203Z,9.93
2019-04-16T05:52:02.884Z,10.40
2019-04-16T05:54:54.374Z,10.10
2019-04-16T05:57:29.608Z,9.70
2019-04-16T05:59:59.082Z,9.80
2019-04-16T06:02:36.921Z,9.60
2019-04-16T06:05:06.654Z,9.97
2019-04-16T06:07:38.104Z,9.67
2019-04-16T06:10:07.667Z,10.07
2019-04-16T06:12:53.011Z,10.37
2019-04-16T06:15:54.060Z,9.67
2019-04-16T06:19:00.625Z,10.30
2019-04-16T06:21:41.654Z,10.43
2019-04-16T06:24:26.076Z,10.37
2019-04-16T06:27:09.711Z,10.67
2019-04-16T06:29:57.607Z,10.27
2019-04-16T06:32:53.010Z,10.23
2019-04-16T06:35:43.537Z,9.93
2019-04-16T06:38:17.054Z,9.90
2019-04-16T06:41:07.957Z,10.00
2019-04-16T06:43:40.474Z,9.43
2019-04-16T06:46:39.480Z,9.67
2019-04-16T06:49:27.770Z,9.70
2019-04-16T06:52:16.039Z,10.60
2019-04-16T06:55:00.540Z,20.40
2019-04-16T06:58:04.769Z,10.43
2019-04-16T07:00:53.523Z,10.10
2019-04-16T07:03:50.679Z,10.60
2019-04-16T07:06:45.122Z,10.70
2019-04-16T07:09:25.761Z,9.30
2019-04-16T07:11:56.617Z,10.50
2019-04-16T07:14:26.203Z,10.47
2019-04-16T07:16:59.793Z,11.17
2019-04-16T07:19:26.807Z,10.17
2019-04-16T07:21:56.427Z,11.20
2019-04-16T07:24:30.082Z,11.57
2019-04-16T07:26:57.126Z,11.00
2019-04-16T07:29:32.780Z,11.00
2019-04-16T07:32:14.315Z,10.50
2019-04-16T07:34:51.891Z,11.13
2019-04-16T07:37:38.970Z,12.03
2019-04-16T07:40:25.035Z,10.97
2019-04-16T07:43:15.556Z,11.33
2019-04-16T07:45:49.334Z,10.57
2019-04-16T07:48:35.037Z,10.83
2019-04-16T07:51:21.863Z,10.33
2019-04-16T07:54:12.386Z,10.63
2019-04-16T07:56:43.801Z,12.18
2019-04-16T07:59:13.089Z,11.03
2019-04-16T08:01:44.087Z,12.00
2019-04-16T08:04:13.655Z,11.63
2019-04-16T08:06:46.229Z,12.75
2019-04-16T08:09:14.265Z,11.27
2019-04-16T08:11:43.801Z,12.00
2019-04-16T08:14:14.691Z,10.57
2019-04-16T08:16:47.651Z,11.75
2019-04-16T08:19:16.243Z,10.37
2019-04-16T08:21:45.796Z,11.00
2019-04-16T08:24:24.430Z,10.83
2019-04-16T08:26:51.326Z,10.23
2019-04-16T08:29:20.662Z,10.97
2019-04-16T08:31:50.426Z,9.80
2019-04-16T08:34:19.901Z,9.47
2019-04-16T08:36:49.364Z,9.43
2019-04-16T08:39:18.638Z,9.70
2019-04-16T08:41:52.149Z,9.30
2019-04-16T08:44:19.303Z,8.80
2019-04-16T08:46:48.633Z,9.70
2019-04-16T08:49:22.058Z,8.77
2019-04-16T08:51:49.262Z,8.63
2019-04-16T08:54:18.891Z,7.47
2019-04-16T08:56:48.362Z,8.00
2019-04-16T08:59:17.675Z,8.33
2019-04-16T09:01:47.074Z,8.47
2019-04-16T09:04:16.619Z,8.47
2019-04-16T09:06:47.215Z,7.67
2019-04-16T09:09:27.360Z,8.90
2019-04-16T09:12:00.039Z,8.50
2019-04-16T09:14:31.070Z,9.10
2019-04-16T09:17:09.965Z,11.27
2019-04-16T09:19:41.807Z,9.07
2019-04-16T09:22:15.731Z,8.87
2019-04-16T09:25:13.603Z,9.37
2019-04-16T09:27:43.483Z,8.30
2019-04-16T09:30:46.646Z,10.37
2019-04-16T09:33:23.398Z,9.17
2019-04-16T09:35:58.683Z,7.63
2019-04-16T09:38:39.368Z,6.13
2019-04-16T09:41:16.542Z,9.00
2019-04-16T09:43:48.482Z,8.20
2019-04-16T09:46:26.601Z,7.83
2019-04-16T09:48:50.157Z,7.50
2019-04-16T09:51:21.020Z,8.30
2019-04-16T09:53:50.816Z,8.07
2019-04-16T09:56:29.389Z,10.20
2019-04-16T09:59:00.104Z,8.83
2019-04-16T10:01:49.915Z,10.40
2019-04-16T10:04:20.311Z,4.87
2019-04-16T10:06:49.784Z,6.93
2019-04-16T10:09:21.746Z,5.43
2019-04-16T10:11:50.253Z,5.20
2019-04-16T10:14:19.676Z,5.53
2019-04-16T10:16:48.988Z,5.00
2019-04-16T10:19:21.041Z,4.60
2019-04-16T10:21:53.252Z,4.93
2019-04-16T10:24:38.341Z,12.40
2019-04-16T10:27:09.317Z,6.10
2019-04-16T10:29:38.693Z,5.70
2019-04-16T10:32:08.126Z,5.63
2019-04-16T10:34:37.391Z,5.77
2019-04-16T10:37:06.825Z,5.33
2019-04-16T10:40:01.590Z,4.97
2019-04-16T10:42:49.967Z,4.63
2019-04-16T10:45:36.839Z,7.10
2019-04-16T10:48:37.566Z,5.93
2019-04-16T10:51:24.680Z,5.33
2019-04-16T10:54:06.226Z,7.23
2019-04-16T10:56:56.828Z,5.83
2019-04-16T10:59:55.854Z,5.03
2019-04-16T11:02:39.187Z,6.27
2019-04-16T11:05:27.576Z,3.67
2019-04-16T11:07:57.575Z,5.33
2019-04-16T11:10:26.940Z,3.23
2019-04-16T11:12:56.580Z,3.80
2019-04-16T11:15:27.029Z,6.60
2019-04-16T11:17:56.504Z,4.40
2019-04-16T11:20:25.925Z,4.03
2019-04-16T11:22:55.261Z,3.97
2019-04-16T11:25:24.691Z,8.97
2019-04-16T11:27:54.262Z,4.13
2019-04-16T11:30:34.490Z,4.20
2019-04-16T11:33:03.889Z,4.73
2019-04-16T11:35:33.298Z,5.83
2019-04-16T11:38:02.936Z,4.33
2019-04-16T11:40:32.821Z,6.57
2019-04-16T11:43:02.434Z,4.03
2019-04-16T11:45:31.820Z,4.70
2019-04-16T11:48:01.318Z,5.77
2019-04-16T11:50:30.775Z,4.00
2019-04-16T11:53:00.189Z,4.87
2019-04-16T11:55:29.691Z,4.67
2019-04-16T11:57:59.165Z,3.77
2019-04-16T12:00:48.783Z,4.07
2019-04-16T12:03:40.161Z,4.57
2019-04-16T12:06:29.164Z,3.97
2019-04-16T12:09:06.782Z,6.30
2019-04-16T12:11:41.018Z,4.70
2019-04-16T12:14:34.354Z,4.40
2019-04-16T12:17:36.459Z,4.13
2019-04-16T12:20:31.612Z,3.90
2019-04-16T12:23:38.640Z,5.83
2019-04-16T12:26:19.360Z,4.37
2019-04-16T12:29:05.928Z,4.37
2019-04-16T12:32:12.516Z,4.90
2019-04-16T12:34:56.842Z,4.87
2019-04-16T12:37:44.173Z,5.00
2019-04-16T12:40:35.724Z,4.83
2019-04-16T12:43:22.636Z,4.73
2019-04-16T12:46:09.463Z,4.97
2019-04-16T12:48:56.825Z,5.10
2019-04-16T12:51:31.934Z,3.60
2019-04-16T12:54:09.934Z,4.60
2019-04-16T12:56:57.037Z,3.27
2019-04-16T12:59:32.704Z,2.87
2019-04-16T13:02:19.566Z,3.00
2019-04-16T13:05:06.740Z,2.73
2019-04-16T13:07:55.138Z,4.67
2019-04-16T13:10:49.538Z,3.00
2019-04-16T13:13:36.519Z,2.87
2019-04-16T13:16:10.670Z,2.73
2019-04-16T13:19:10.848Z,3.03
2019-04-16T13:21:50.084Z,3.00
2019-04-16T13:24:27.226Z,3.07
2019-04-16T13:26:59.573Z,2.50
2019-04-16T13:29:30.999Z,2.87
2019-04-16T13:32:00.496Z,2.70
2019-04-16T13:34:29.931Z,2.83
2019-04-16T13:37:00.606Z,3.23
2019-04-16T13:39:42.649Z,3.37
2019-04-16T13:42:12.102Z,2.90
2019-04-16T13:44:48.040Z,3.60
2019-04-16T13:47:17.523Z,3.03
2019-04-16T13:50:11.672Z,2.80
2019-04-16T13:52:41.221Z,3.13
2019-04-16T13:55:41.710Z,2.87
2019-04-16T13:58:34.364Z,2.30
2019-04-16T14:01:13.405Z,2.77
2019-04-16T14:03:42.932Z,2.90
2019-04-16T14:06:12.422Z,3.10
2019-04-16T14:08:41.733Z,2.87
2019-04-16T14:11:11.184Z,3.63
2019-04-16T14:13:41.987Z,2.80
2019-04-16T14:16:12.948Z,6.07
2019-04-16T14:18:42.645Z,2.83
2019-04-16T14:21:11.961Z,2.80
2019-04-16T14:23:41.255Z,2.77
2019-04-16T14:26:10.578Z,3.20
2019-04-16T14:28:51.298Z,3.00
2019-04-16T14:31:16.320Z,3.07
2019-04-16T14:33:56.830Z,3.87
2019-04-16T14:36:26.241Z,9.40
2019-04-16T14:38:58.309Z,3.93
2019-04-16T14:41:27.798Z,3.67
2019-04-16T14:44:03.844Z,4.53
2019-04-16T14:46:33.023Z,3.77
2019-04-16T14:49:02.520Z,4.47
2019-04-16T14:51:31.820Z,6.30
2019-04-16T14:54:06.715Z,4.73
2019-04-16T14:56:45.672Z,5.50
2019-04-16T14:59:33.489Z,5.00
2019-04-16T15:02:02.447Z,3.73
2019-04-16T15:04:58.121Z,3.77
2019-04-16T15:07:45.051Z,4.10
2019-04-16T15:10:25.550Z,4.00
2019-04-16T15:13:00.241Z,5.13
2019-04-16T15:15:39.116Z,5.22
2019-04-16T15:18:33.520Z,5.27
2019-04-16T15:21:20.735Z,5.40
2019-04-16T15:24:09.321Z,4.97
2019-04-16T15:27:00.569Z,4.73
2019-04-16T15:29:47.918Z,6.70
2019-04-16T15:32:45.504Z,6.37
2019-04-16T15:35:19.508Z,4.90
2019-04-16T15:38:10.730Z,4.83
2019-04-16T15:40:41.238Z,5.50
2019-04-16T15:43:28.061Z,6.03
2019-04-16T15:46:26.433Z,6.07
2019-04-16T15:49:10.174Z,5.20
2019-04-16T15:52:04.630Z,5.90
2019-04-16T15:54:45.369Z,6.17
2019-04-16T15:57:51.595Z,8.47
2019-04-16T16:00:40.008Z,5.93
2019-04-16T16:03:34.303Z,5.90
2019-04-16T16:06:20.411Z,5.87
2019-04-16T16:08:57.279Z,6.20
2019-04-16T16:11:32.389Z,6.13
2019-04-16T16:14:01.951Z,6.13
2019-04-16T16:16:41.578Z,6.03
2019-04-16T16:19:04.213Z,6.83
2019-04-16T16:21:33.707Z,8.07
2019-04-16T16:24:06.476Z,6.07
2019-04-16T16:26:34.781Z,6.70
2019-04-16T16:29:04.309Z,5.93
2019-04-16T16:31:35.747Z,6.50
2019-04-16T16:34:08.274Z,6.83
2019-04-16T16:36:36.545Z,16.57
2019-04-16T16:39:07.607Z,12.63
2019-04-16T16:41:37.008Z,7.03
2019-04-16T16:44:06.599Z,7.13
2019-04-16T16:46:57.410Z,7.30
2019-04-16T16:49:23.375Z,5.63
2019-04-16T16:52:10.619Z,5.57
2019-04-16T16:54:40.441Z,5.93
2019-04-16T16:57:34.800Z,5.17
2019-04-16T17:00:36.217Z,10.50
2019-04-16T17:03:29.226Z,5.70
2019-04-16T17:05:59.176Z,5.47
2019-04-16T17:08:30.190Z,6.60
2019-04-16T17:11:14.609Z,5.23
2019-04-16T17:13:31.142Z,5.47
2019-04-16T17:16:00.476Z,6.33
2019-04-16T17:18:30.001Z,6.87
2019-04-16T17:20:59.333Z,7.43
2019-04-16T17:23:29.657Z,6.83
2019-04-16T17:25:59.096Z,6.60
2019-04-16T17:28:28.605Z,6.17
2019-04-16T17:30:59.204Z,6.07
2019-04-16T17:33:28.662Z,5.93
2019-04-16T17:35:58.113Z,5.77
2019-04-16T17:38:27.567Z,6.13
2019-04-16T17:41:00.207Z,5.73
2019-04-16T17:44:00.297Z,6.17
2019-04-16T17:46:37.130Z,5.93
2019-04-16T17:49:21.626Z,7.73
2019-04-16T17:52:09.910Z,13.77
2019-04-16T17:54:43.300Z,15.50
2019-04-16T17:57:29.876Z,13.73
2019-04-16T18:00:16.693Z,12.47
2019-04-16T18:03:03.054Z,14.10
2019-04-16T18:05:37.578Z,13.87
2019-04-16T18:08:34.740Z,11.03
2019-04-16T18:11:13.626Z,9.87
2019-04-16T18:13:56.470Z,11.83
2019-04-16T18:16:29.951Z,14.40
2019-04-16T18:19:07.441Z,13.80
2019-04-16T18:21:43.531Z,14.03
2019-04-16T18:24:40.941Z,14.93
2019-04-16T18:27:29.407Z,14.07
2019-04-16T18:30:16.754Z,14.57
2019-04-16T18:33:17.456Z,14.70
2019-04-16T18:36:01.030Z,13.30
2019-04-16T18:39:03.183Z,13.97
2019-04-16T18:41:40.428Z,12.43
2019-04-16T18:44:30.087Z,12.33
2019-04-16T18:47:23.878Z,13.60
2019-04-16T18:49:55.767Z,13.33
2019-04-16T18:52:25.231Z,15.83
2019-04-16T18:54:54.716Z,16.63
2019-04-16T18:57:24.298Z,10.70
2019-04-16T18:59:53.868Z,10.13
2019-04-16T19:02:25.209Z,10.37
2019-04-16T19:04:54.687Z,9.50
2019-04-16T19:07:24.173Z,12.50
2019-04-16T19:09:53.675Z,7.67
2019-04-16T19:12:23.231Z,9.23
2019-04-16T19:14:52.777Z,7.93
2019-04-16T19:17:22.338Z,9.73
2019-04-16T19:19:52.012Z,8.07
2019-04-16T19:22:21.762Z,11.77
2019-04-16T19:24:51.078Z,8.63
2019-04-16T19:27:20.383Z,8.00
2019-04-16T19:29:49.928Z,9.03
2019-04-16T19:32:19.361Z,7.67
2019-04-16T19:34:48.657Z,7.47
2019-04-16T19:37:18.076Z,8.43
2019-04-16T19:39:47.785Z,8.17
2019-04-16T19:42:17.358Z,7.07
2019-04-16T19:44:46.782Z,7.13
2019-04-16T19:47:15.980Z,7.50
2019-04-16T19:49:45.504Z,8.13
2019-04-16T19:52:17.434Z,9.73
2019-04-16T19:54:47.536Z,7.50
2019-04-16T19:57:17.048Z,8.67
2019-04-16T19:59:47.328Z,7.27
2019-04-16T20:02:16.878Z,7.90
2019-04-16T20:04:46.198Z,8.30
2019-04-16T20:07:15.513Z,8.20
2019-04-16T20:09:44.974Z,8.47
2019-04-16T20:12:14.505Z,8.60
2019-04-16T20:14:43.987Z,8.17
2019-04-16T20:17:13.498Z,7.37
2019-04-16T20:19:58.732Z,8.77
2019-04-16T20:22:31.777Z,6.93
2019-04-16T20:25:01.265Z,7.40
2019-04-16T20:27:30.668Z,7.13
2019-04-16T20:30:00.243Z,7.17
2019-04-16T20:32:31.021Z,7.77
2019-04-16T20:35:02.319Z,7.53
2019-04-16T20:37:31.777Z,6.97
2019-04-16T20:40:01.684Z,7.03
2019-04-16T20:42:31.124Z,7.47
2019-04-16T20:45:00.833Z,6.63
2019-04-16T20:47:30.315Z,6.80
2019-04-16T20:50:03.525Z,7.00
2019-04-16T20:52:33.670Z,6.57
2019-04-16T20:55:02.131Z,7.00
2019-04-16T20:57:31.475Z,6.80
2019-04-16T21:00:00.978Z,7.53
2019-04-16T21:02:32.850Z,6.60
2019-04-16T21:05:04.408Z,6.43
2019-04-16T21:07:33.515Z,6.27
2019-04-16T21:10:04.506Z,7.60
2019-04-16T21:12:34.028Z,6.93
2019-04-16T21:15:03.401Z,7.70
2019-04-16T21:17:37.967Z,8.10
2019-04-16T21:20:04.324Z,7.37
2019-04-16T21:22:33.717Z,6.97
2019-04-16T21:25:03.272Z,6.53
2019-04-16T21:27:34.504Z,6.73
2019-04-16T21:30:11.483Z,7.13
2019-04-16T21:33:00.534Z,7.20
2019-04-16T21:35:36.805Z,6.70
2019-04-16T21:38:25.110Z,6.57
2019-04-16T21:40:56.367Z,7.57
2019-04-16T21:43:25.613Z,6.87
2019-04-16T21:45:55.217Z,7.73
2019-04-16T21:48:26.789Z,7.30
2019-04-16T21:50:55.980Z,7.27
2019-04-16T21:53:27.877Z,5.93
2019-04-16T21:55:56.560Z,6.57
2019-04-16T21:58:25.977Z,7.00
2019-04-16T22:01:12.964Z,7.07
2019-04-16T22:03:43.347Z,6.70
2019-04-16T22:06:12.694Z,7.40
2019-04-16T22:08:42.117Z,7.53
2019-04-16T22:11:12.009Z,6.60
2019-04-16T22:13:42.080Z,6.80
2019-04-16T22:16:11.575Z,7.10
2019-04-16T22:18:41.540Z,6.37
2019-04-16T22:21:11.742Z,7.43
2019-04-16T22:23:41.205Z,6.73
2019-04-16T22:26:11.091Z,6.20
2019-04-16T22:28:44.128Z,6.27
2019-04-16T22:31:11.802Z,6.50
2019-04-16T22:33:41.294Z,7.07
2019-04-16T22:36:10.770Z,7.20
2019-04-16T22:38:41.735Z,7.20
2019-04-16T22:41:20.417Z,6.83
2019-04-16T22:44:20.567Z,7.30
2019-04-16T22:46:56.339Z,7.63
2019-04-16T22:49:25.657Z,7.90
2019-04-16T22:51:55.025Z,7.77
2019-04-16T22:54:24.581Z,7.77
2019-04-16T22:57:03.444Z,8.47
2019-04-16T22:59:32.948Z,7.87
2019-04-16T23:02:04.794Z,8.00
2019-04-16T23:04:34.311Z,7.97
2019-04-16T23:07:07.108Z,7.87
2019-04-16T23:09:34.892Z,8.10
2019-04-16T23:12:04.409Z,8.50
2019-04-16T23:14:34.943Z,8.10
2019-04-16T23:17:05.461Z,7.77
2019-04-16T23:19:34.844Z,8.50
2019-04-16T23:22:04.351Z,7.70
2019-04-16T23:24:33.670Z,7.80
2019-04-16T23:27:05.673Z,8.33
2019-04-16T23:29:34.182Z,8.27
2019-04-16T23:32:03.655Z,7.30
2019-04-16T23:34:34.929Z,8.10
2019-04-16T23:37:04.373Z,7.70
2019-04-16T23:39:36.459Z,7.70
2019-04-16T23:42:04.877Z,7.77
2019-04-16T23:44:54.619Z,8.10
2019-04-16T23:47:42.903Z,7.57
2019-04-16T23:50:44.265Z,8.00
2019-04-16T23:53:09.520Z,8.10
2019-04-16T23:56:04.298Z,7.90
2019-04-16T23:58:48.294Z,7.40
